createdAt,value
2023-05-18T00:00:11.217Z,99.14
2023-05-18T00:02:38.688Z,99.45
2023-05-18T00:05:06.935Z,99.61
2023-05-18T00:07:34.566Z,100.00
2023-05-18T00:10:02.011Z,100.00
2023-05-18T00:12:29.849Z,100.00
2023-05-18T00:14:57.136Z,100.00
2023-05-18T00:17:24.666Z,100.00
2023-05-18T00:19:52.193Z,100.00
2023-05-18T00:22:19.780Z,100.00
2023-05-18T00:24:48.300Z,100.00
2023-05-18T00:27:15.618Z,100.00
2023-05-18T00:29:43.118Z,100.00
2023-05-18T00:32:12.967Z,100.00
2023-05-18T00:34:40.568Z,100.00
2023-05-18T00:37:08.191Z,100.00
2023-05-18T00:39:38.679Z,100.00
2023-05-18T00:42:07.425Z,100.00
2023-05-18T00:44:34.824Z,100.00
2023-05-18T00:47:02.173Z,100.00
2023-05-18T00:49:29.954Z,100.00
2023-05-18T00:51:57.535Z,100.00
2023-05-18T00:54:26.402Z,100.00
2023-05-18T00:56:54.060Z,100.00
2023-05-18T00:59:22.484Z,100.00
2023-05-18T01:01:50.669Z,100.00
2023-05-18T01:04:18.090Z,100.00
2023-05-18T01:06:46.611Z,100.00
2023-05-18T01:09:15.025Z,100.00
2023-05-18T01:12:18.912Z,100.00
2023-05-18T01:15:09.335Z,100.00
2023-05-18T01:18:05.343Z,100.00
2023-05-18T01:20:39.702Z,100.00
2023-05-18T01:23:15.072Z,100.00
2023-05-18T01:25:54.990Z,100.00
2023-05-18T01:28:30.991Z,100.00
2023-05-18T01:30:59.149Z,100.00
2023-05-18T01:33:26.832Z,100.00
2023-05-18T01:35:57.403Z,100.00
2023-05-18T01:38:27.623Z,100.00
2023-05-18T01:41:21.611Z,100.00
2023-05-18T01:44:04.998Z,100.00
2023-05-18T01:46:40.173Z,100.00
2023-05-18T01:49:17.330Z,100.00
2023-05-18T01:51:47.067Z,100.00
2023-05-18T01:54:17.715Z,100.00
2023-05-18T01:56:45.519Z,100.00
2023-05-18T01:59:14.973Z,100.00
2023-05-18T02:01:42.455Z,100.00
2023-05-18T02:04:10.717Z,100.00
2023-05-18T02:06:38.553Z,100.00
2023-05-18T02:09:07.204Z,100.00
2023-05-18T02:11:34.941Z,100.00
2023-05-18T02:14:02.532Z,100.00
2023-05-18T02:16:30.412Z,100.00
2023-05-18T02:19:00.258Z,100.00
2023-05-18T02:21:27.710Z,100.00
2023-05-18T02:23:55.166Z,100.00
2023-05-18T02:26:23.933Z,100.00
2023-05-18T02:28:54.810Z,100.00
2023-05-18T02:31:22.314Z,100.00
2023-05-18T02:33:49.595Z,100.00
2023-05-18T02:36:18.764Z,100.00
2023-05-18T02:38:46.439Z,100.00
2023-05-18T02:41:13.912Z,100.00
2023-05-18T02:43:41.537Z,100.00
2023-05-18T02:46:09.130Z,100.00
2023-05-18T02:48:36.525Z,100.00
2023-05-18T02:51:03.885Z,100.00
2023-05-18T02:53:32.023Z,100.00
2023-05-18T02:56:04.953Z,100.00
2023-05-18T02:58:44.855Z,100.00
2023-05-18T03:01:27.172Z,100.00
2023-05-18T03:03:57.744Z,100.00
2023-05-18T03:06:27.108Z,100.00
2023-05-18T03:08:57.009Z,100.00
2023-05-18T03:11:32.389Z,100.00
2023-05-18T03:13:59.704Z,100.00
2023-05-18T03:16:28.802Z,100.00
2023-05-18T03:18:59.468Z,100.00
2023-05-18T03:21:38.776Z,100.00
2023-05-18T03:24:07.344Z,100.00
2023-05-18T03:26:38.804Z,100.00
2023-05-18T03:29:06.197Z,100.00
2023-05-18T03:31:33.921Z,100.00
2023-05-18T03:34:03.036Z,100.00
2023-05-18T03:36:33.283Z,100.00
2023-05-18T03:39:00.570Z,100.00
2023-05-18T03:41:29.956Z,100.00
2023-05-18T03:43:57.886Z,100.00
2023-05-18T03:46:25.310Z,100.00
2023-05-18T03:48:54.810Z,100.00
2023-05-18T03:51:29.666Z,100.00
2023-05-18T03:53:57.448Z,100.00
2023-05-18T03:56:25.042Z,100.00
2023-05-18T03:58:52.414Z,100.00
2023-05-18T04:01:19.836Z,100.00
2023-05-18T04:03:47.726Z,100.00
2023-05-18T04:06:15.256Z,100.00
2023-05-18T04:08:43.343Z,100.00
2023-05-18T04:11:11.789Z,100.00
2023-05-18T04:13:41.996Z,100.00
2023-05-18T04:16:13.535Z,100.00
2023-05-18T04:18:41.813Z,100.00
2023-05-18T04:21:09.611Z,100.00
2023-05-18T04:23:38.926Z,100.00
2023-05-18T04:26:07.090Z,100.00
2023-05-18T04:28:38.084Z,100.00
2023-05-18T04:31:06.086Z,100.00
2023-05-18T04:33:34.416Z,100.00
2023-05-18T04:36:05.055Z,100.00
2023-05-18T04:38:34.662Z,100.00
2023-05-18T04:41:06.689Z,100.00
2023-05-18T04:43:34.415Z,100.00
2023-05-18T04:46:02.301Z,100.00
2023-05-18T04:48:30.961Z,100.00
2023-05-18T04:50:58.273Z,100.00
2023-05-18T04:53:27.607Z,100.00
2023-05-18T04:55:55.020Z,100.00
2023-05-18T04:58:22.686Z,100.00
2023-05-18T05:00:50.541Z,100.00
2023-05-18T05:03:18.036Z,100.00
2023-05-18T05:05:45.697Z,100.00
2023-05-18T05:08:13.407Z,100.00
2023-05-18T05:10:40.876Z,100.00
2023-05-18T05:13:10.161Z,100.00
2023-05-18T05:15:37.677Z,100.00
2023-05-18T05:18:05.155Z,100.00
2023-05-18T05:20:32.570Z,100.00
2023-05-18T05:22:59.961Z,100.00
2023-05-18T05:25:28.095Z,100.00
2023-05-18T05:27:55.610Z,100.00
2023-05-18T05:30:23.061Z,100.00
2023-05-18T05:32:50.715Z,100.00
2023-05-18T05:35:18.454Z,99.57
2023-05-18T05:37:46.870Z,98.62
2023-05-18T05:40:15.114Z,99.92
2023-05-18T05:42:45.443Z,99.76
2023-05-18T05:45:13.471Z,97.88
2023-05-18T05:47:49.510Z,97.16
2023-05-18T05:50:18.516Z,97.59
2023-05-18T05:52:47.994Z,98.07
2023-05-18T05:55:15.925Z,97.88
2023-05-18T05:57:43.298Z,96.48
2023-05-18T06:00:13.110Z,95.91
2023-05-18T06:02:51.965Z,96.18
2023-05-18T06:05:31.237Z,95.89
2023-05-18T06:07:59.167Z,96.24
2023-05-18T06:10:26.443Z,96.33
2023-05-18T06:12:54.199Z,97.62
2023-05-18T06:15:25.624Z,96.23
2023-05-18T06:17:53.022Z,95.70
2023-05-18T06:20:20.653Z,95.31
2023-05-18T06:22:48.014Z,93.42
2023-05-18T06:25:22.413Z,93.14
2023-05-18T06:28:15.973Z,91.43
2023-05-18T06:30:49.568Z,90.71
2023-05-18T06:33:23.724Z,89.57
2023-05-18T06:35:51.332Z,89.30
2023-05-18T06:38:18.730Z,88.72
2023-05-18T06:40:48.029Z,87.92
2023-05-18T06:43:15.680Z,88.13
2023-05-18T06:45:48.181Z,89.62
2023-05-18T06:48:27.890Z,89.47
2023-05-18T06:50:56.218Z,87.63
2023-05-18T06:53:23.626Z,86.68
2023-05-18T06:55:51.216Z,87.39
2023-05-18T06:58:18.717Z,86.41
2023-05-18T07:00:49.456Z,86.50
2023-05-18T07:03:17.590Z,84.64
2023-05-18T07:05:45.030Z,85.76
2023-05-18T07:08:12.464Z,85.09
2023-05-18T07:10:40.207Z,85.42
2023-05-18T07:13:07.576Z,86.31
2023-05-18T07:15:35.200Z,85.21
2023-05-18T07:18:03.841Z,83.10
2023-05-18T07:20:31.428Z,82.64
2023-05-18T07:22:58.722Z,79.46
2023-05-18T07:25:26.320Z,77.89
2023-05-18T07:27:54.936Z,78.54
2023-05-18T07:30:23.147Z,81.22
2023-05-18T07:32:51.455Z,79.75
2023-05-18T07:35:22.862Z,78.68
2023-05-18T07:37:52.171Z,79.11
2023-05-18T07:40:20.076Z,77.02
2023-05-18T07:42:47.526Z,76.62
2023-05-18T07:45:14.843Z,77.76
2023-05-18T07:47:42.246Z,77.45
2023-05-18T07:50:10.248Z,76.99
2023-05-18T07:52:37.570Z,76.26
2023-05-18T07:55:05.709Z,74.46
2023-05-18T07:57:35.528Z,72.94
2023-05-18T08:00:06.535Z,73.23
2023-05-18T08:02:40.036Z,72.46
2023-05-18T08:05:09.716Z,73.90
2023-05-18T08:07:37.871Z,73.56
2023-05-18T08:10:06.172Z,74.27
2023-05-18T08:12:33.610Z,74.98
2023-05-18T08:15:00.920Z,73.43
2023-05-18T08:17:28.328Z,74.25
2023-05-18T08:19:57.012Z,76.88
2023-05-18T08:22:24.380Z,78.17
2023-05-18T08:24:52.111Z,76.73
2023-05-18T08:27:20.115Z,76.16
2023-05-18T08:29:47.538Z,77.58
2023-05-18T08:32:15.386Z,77.50
2023-05-18T08:34:44.098Z,77.33
2023-05-18T08:37:11.563Z,76.18
2023-05-18T08:39:39.043Z,76.79
2023-05-18T08:42:12.631Z,76.57
2023-05-18T08:44:52.266Z,76.89
2023-05-18T08:47:25.956Z,76.69
2023-05-18T08:49:56.896Z,75.82
2023-05-18T08:52:28.108Z,75.55
2023-05-18T08:55:00.269Z,76.26
2023-05-18T08:57:32.864Z,77.75
2023-05-18T09:00:01.865Z,78.85
2023-05-18T09:02:29.817Z,78.37
2023-05-18T09:04:58.284Z,78.91
2023-05-18T09:07:27.650Z,78.51
2023-05-18T09:09:56.475Z,79.84
2023-05-18T09:12:24.837Z,80.87
2023-05-18T09:14:53.404Z,80.04
2023-05-18T09:17:22.957Z,80.72
2023-05-18T09:19:50.378Z,82.05
2023-05-18T09:22:18.020Z,84.73
2023-05-18T09:24:45.601Z,84.73
2023-05-18T09:27:13.011Z,82.89
2023-05-18T09:29:55.988Z,80.77
2023-05-18T09:32:24.891Z,81.01
2023-05-18T09:34:53.968Z,79.60
2023-05-18T09:37:22.650Z,79.43
2023-05-18T09:40:08.202Z,79.51
2023-05-18T09:42:41.282Z,79.22
2023-05-18T09:45:23.542Z,77.72
2023-05-18T09:47:51.763Z,78.32
2023-05-18T09:50:25.024Z,77.01
2023-05-18T09:52:52.409Z,78.24
2023-05-18T09:55:20.940Z,78.26
2023-05-18T09:57:50.854Z,77.26
2023-05-18T10:00:22.263Z,75.08
2023-05-18T10:02:52.815Z,75.33
2023-05-18T10:05:28.315Z,74.75
2023-05-18T10:07:56.946Z,73.90
2023-05-18T10:10:27.628Z,73.74
2023-05-18T10:12:55.633Z,72.62
2023-05-18T10:15:23.931Z,74.06
2023-05-18T10:17:55.616Z,74.45
2023-05-18T10:20:26.640Z,74.27
2023-05-18T10:22:56.389Z,73.92
2023-05-18T10:25:26.674Z,74.02
2023-05-18T10:28:00.862Z,72.91
2023-05-18T10:30:28.665Z,73.22
2023-05-18T10:32:58.221Z,73.67
2023-05-18T10:35:28.609Z,73.98
2023-05-18T10:37:59.274Z,74.04
2023-05-18T10:40:28.526Z,72.93
2023-05-18T10:42:58.826Z,74.66
2023-05-18T10:45:26.901Z,75.17
2023-05-18T10:47:55.832Z,75.31
2023-05-18T10:50:23.993Z,72.27
2023-05-18T10:52:52.134Z,74.55
2023-05-18T10:55:20.046Z,74.54
2023-05-18T10:57:52.704Z,72.88
2023-05-18T11:00:20.545Z,74.92
2023-05-18T11:02:50.715Z,73.55
2023-05-18T11:05:25.218Z,74.59
2023-05-18T11:08:05.001Z,74.89
2023-05-18T11:10:48.560Z,75.80
2023-05-18T11:13:16.223Z,76.98
2023-05-18T11:15:56.361Z,77.49
2023-05-18T11:18:46.713Z,78.94
2023-05-18T11:21:21.540Z,77.83
2023-05-18T11:24:21.713Z,77.60
2023-05-18T11:26:50.418Z,78.33
2023-05-18T11:29:18.773Z,77.73
2023-05-18T11:31:48.739Z,78.45
2023-05-18T11:34:49.936Z,79.33
2023-05-18T11:37:38.336Z,80.13
2023-05-18T11:40:13.567Z,80.07
2023-05-18T11:42:41.307Z,79.36
2023-05-18T11:45:11.209Z,79.89
2023-05-18T11:47:41.168Z,80.98
2023-05-18T11:50:12.353Z,80.42
2023-05-18T11:52:51.938Z,79.72
2023-05-18T11:55:21.003Z,81.22
2023-05-18T11:57:53.010Z,81.68
2023-05-18T12:00:21.614Z,81.38
2023-05-18T12:02:49.821Z,79.92
2023-05-18T12:05:17.603Z,80.37
2023-05-18T12:07:52.380Z,81.04
2023-05-18T12:10:21.799Z,79.86
2023-05-18T12:12:53.112Z,81.90
2023-05-18T12:15:25.219Z,81.54
2023-05-18T12:17:52.812Z,82.13
2023-05-18T12:20:22.180Z,81.27
2023-05-18T12:22:53.447Z,80.34
2023-05-18T12:25:25.968Z,80.76
2023-05-18T12:27:54.980Z,82.18
2023-05-18T12:30:24.868Z,83.17
2023-05-18T12:32:57.515Z,83.05
2023-05-18T12:35:26.122Z,82.35
2023-05-18T12:37:58.192Z,82.85
2023-05-18T12:40:26.037Z,82.29
2023-05-18T12:43:00.881Z,82.97
2023-05-18T12:45:36.346Z,82.03
2023-05-18T12:48:10.888Z,82.17
2023-05-18T12:50:53.471Z,83.93
2023-05-18T12:53:20.955Z,83.29
2023-05-18T12:55:59.831Z,82.60
2023-05-18T12:58:29.834Z,83.65
2023-05-18T13:00:57.158Z,83.59
2023-05-18T13:03:24.668Z,82.80
2023-05-18T13:06:09.933Z,83.99
2023-05-18T13:08:38.340Z,83.92
2023-05-18T13:11:14.306Z,84.63
2023-05-18T13:14:06.685Z,83.74
2023-05-18T13:16:37.440Z,83.96
2023-05-18T13:19:10.633Z,85.21
2023-05-18T13:21:38.314Z,86.77
2023-05-18T13:24:06.056Z,87.63
2023-05-18T13:26:34.054Z,87.56
2023-05-18T13:29:02.064Z,87.68
2023-05-18T13:31:33.067Z,89.66
2023-05-18T13:34:05.016Z,89.98
2023-05-18T13:36:35.782Z,90.46
2023-05-18T13:39:07.688Z,90.85
2023-05-18T13:41:36.837Z,92.24
2023-05-18T13:44:04.219Z,92.25
2023-05-18T13:46:32.074Z,91.26
2023-05-18T13:48:59.624Z,91.52
2023-05-18T13:51:26.987Z,91.97
2023-05-18T13:53:54.468Z,93.69
2023-05-18T13:56:22.599Z,93.62
2023-05-18T13:58:50.236Z,94.65
2023-05-18T14:01:18.142Z,94.96
2023-05-18T14:03:45.684Z,96.28
2023-05-18T14:06:13.738Z,95.94
2023-05-18T14:08:41.530Z,96.24
2023-05-18T14:11:09.734Z,96.88
2023-05-18T14:13:40.086Z,96.60
2023-05-18T14:16:08.040Z,95.88
2023-05-18T14:18:36.030Z,96.39
2023-05-18T14:21:04.174Z,97.12
2023-05-18T14:23:31.844Z,97.69
2023-05-18T14:26:02.158Z,97.27
2023-05-18T14:28:31.614Z,99.11
2023-05-18T14:30:59.544Z,96.61
2023-05-18T14:33:27.274Z,96.53
2023-05-18T14:35:56.152Z,96.93
2023-05-18T14:38:26.962Z,96.33
2023-05-18T14:40:54.293Z,96.61
2023-05-18T14:43:22.100Z,95.75
2023-05-18T14:45:56.865Z,96.72
2023-05-18T14:48:38.909Z,98.13
2023-05-18T14:51:06.422Z,98.76
2023-05-18T14:53:37.037Z,99.08
2023-05-18T14:56:06.523Z,99.48
2023-05-18T14:58:33.878Z,98.12
2023-05-18T15:01:01.370Z,97.85
2023-05-18T15:03:29.477Z,99.26
2023-05-18T15:05:56.994Z,99.25
2023-05-18T15:08:24.842Z,98.30
2023-05-18T15:10:52.584Z,98.18
2023-05-18T15:13:20.434Z,97.53
2023-05-18T15:15:48.788Z,98.19
2023-05-18T15:18:16.592Z,98.17
2023-05-18T15:20:44.047Z,99.18
2023-05-18T15:23:11.577Z,99.65
2023-05-18T15:25:42.177Z,100.00
2023-05-18T15:28:11.396Z,100.00
2023-05-18T15:30:38.968Z,100.00
2023-05-18T15:33:06.472Z,100.00
2023-05-18T15:35:34.978Z,99.90
2023-05-18T15:38:03.138Z,99.85
2023-05-18T15:40:31.078Z,99.61
2023-05-18T15:43:00.084Z,99.20
2023-05-18T15:45:27.862Z,98.57
2023-05-18T15:47:55.299Z,98.53
2023-05-18T15:50:22.989Z,98.25
2023-05-18T15:52:50.479Z,98.52
2023-05-18T15:55:18.187Z,98.01
2023-05-18T15:57:45.708Z,98.22
2023-05-18T16:00:14.664Z,97.50
2023-05-18T16:02:42.103Z,97.10
2023-05-18T16:05:16.018Z,95.99
2023-05-18T16:07:43.845Z,96.52
2023-05-18T16:10:11.498Z,96.97
2023-05-18T16:12:38.892Z,95.65
2023-05-18T16:15:06.758Z,95.82
2023-05-18T16:17:34.431Z,95.70
2023-05-18T16:20:03.878Z,95.32
2023-05-18T16:22:31.505Z,95.66
2023-05-18T16:24:59.107Z,95.52
2023-05-18T16:27:26.476Z,95.93
2023-05-18T16:29:54.604Z,97.06
2023-05-18T16:32:21.904Z,97.33
2023-05-18T16:34:49.322Z,96.44
2023-05-18T16:37:17.006Z,96.29
2023-05-18T16:39:44.382Z,93.97
2023-05-18T16:42:12.411Z,94.25
2023-05-18T16:44:40.003Z,95.58
2023-05-18T16:47:07.661Z,96.11
2023-05-18T16:49:34.988Z,96.46
2023-05-18T16:52:02.293Z,96.15
2023-05-18T16:54:29.887Z,96.88
2023-05-18T16:56:57.277Z,96.86
2023-05-18T16:59:24.602Z,96.27
2023-05-18T17:01:52.275Z,96.65
2023-05-18T17:04:19.806Z,97.67
2023-05-18T17:06:47.321Z,98.51
2023-05-18T17:09:16.446Z,99.31
2023-05-18T17:11:44.201Z,98.62
2023-05-18T17:14:11.938Z,99.68
2023-05-18T17:16:40.471Z,100.00
2023-05-18T17:19:08.435Z,100.00
2023-05-18T17:21:36.660Z,100.00
2023-05-18T17:24:04.433Z,100.00
2023-05-18T17:26:33.442Z,100.00
2023-05-18T17:29:00.839Z,100.00
2023-05-18T17:31:28.925Z,100.00
2023-05-18T17:33:56.439Z,100.00
2023-05-18T17:36:25.909Z,100.00
2023-05-18T17:38:53.630Z,100.00
2023-05-18T17:41:23.031Z,100.00
2023-05-18T17:43:50.709Z,100.00
2023-05-18T17:46:18.792Z,100.00
2023-05-18T17:48:46.444Z,100.00
2023-05-18T17:51:15.381Z,100.00
2023-05-18T17:53:43.052Z,100.00
2023-05-18T17:56:11.001Z,100.00
2023-05-18T17:58:39.666Z,100.00
2023-05-18T18:01:10.060Z,100.00
2023-05-18T18:03:38.001Z,100.00
2023-05-18T18:06:05.798Z,100.00
2023-05-18T18:08:33.351Z,100.00
2023-05-18T18:11:00.908Z,100.00
2023-05-18T18:13:28.273Z,100.00
2023-05-18T18:15:55.781Z,100.00
2023-05-18T18:18:23.442Z,100.00
2023-05-18T18:20:51.840Z,100.00
2023-05-18T18:23:19.197Z,100.00
2023-05-18T18:25:46.983Z,100.00
2023-05-18T18:28:14.784Z,100.00
2023-05-18T18:30:44.504Z,100.00
2023-05-18T18:33:12.591Z,100.00
2023-05-18T18:35:40.974Z,100.00
2023-05-18T18:38:09.090Z,100.00
2023-05-18T18:40:36.470Z,100.00
2023-05-18T18:43:03.862Z,100.00
2023-05-18T18:45:32.135Z,100.00
2023-05-18T18:48:00.179Z,100.00
2023-05-18T18:50:28.951Z,100.00
2023-05-18T18:52:57.757Z,100.00
2023-05-18T18:55:25.370Z,100.00
2023-05-18T18:57:53.190Z,100.00
2023-05-18T19:00:21.615Z,100.00
2023-05-18T19:02:48.992Z,100.00
2023-05-18T19:05:21.788Z,100.00
2023-05-18T19:07:55.163Z,100.00
2023-05-18T19:10:23.618Z,100.00
2023-05-18T19:12:51.072Z,100.00
2023-05-18T19:15:18.516Z,100.00
2023-05-18T19:17:46.018Z,100.00
2023-05-18T19:20:13.795Z,100.00
2023-05-18T19:22:41.395Z,100.00
2023-05-18T19:25:09.171Z,100.00
2023-05-18T19:27:36.639Z,100.00
2023-05-18T19:30:05.829Z,100.00
2023-05-18T19:32:33.402Z,100.00
2023-05-18T19:35:01.058Z,100.00
2023-05-18T19:37:28.413Z,100.00
2023-05-18T19:39:55.864Z,100.00
2023-05-18T19:42:23.287Z,100.00
2023-05-18T19:44:50.705Z,100.00
2023-05-18T19:47:17.952Z,100.00
2023-05-18T19:49:45.338Z,100.00
2023-05-18T19:52:12.764Z,100.00
2023-05-18T19:54:40.051Z,100.00
2023-05-18T19:57:07.447Z,100.00
2023-05-18T19:59:34.883Z,100.00
2023-05-18T20:02:05.263Z,100.00
2023-05-18T20:04:33.762Z,100.00
2023-05-18T20:07:01.326Z,100.00
2023-05-18T20:09:31.856Z,100.00
2023-05-18T20:11:59.208Z,100.00
2023-05-18T20:14:27.070Z,100.00
2023-05-18T20:16:56.265Z,100.00
2023-05-18T20:19:24.388Z,100.00
2023-05-18T20:21:51.903Z,100.00
2023-05-18T20:24:19.355Z,100.00
2023-05-18T20:26:48.691Z,100.00
2023-05-18T20:29:17.356Z,100.00
2023-05-18T20:31:44.809Z,100.00
2023-05-18T20:34:12.203Z,100.00
2023-05-18T20:36:39.537Z,100.00
2023-05-18T20:39:07.374Z,100.00
2023-05-18T20:41:40.302Z,100.00
2023-05-18T20:44:11.300Z,100.00
2023-05-18T20:46:42.835Z,100.00
2023-05-18T20:49:12.658Z,100.00
2023-05-18T20:51:39.950Z,100.00
2023-05-18T20:54:07.562Z,100.00
2023-05-18T20:56:36.283Z,100.00
2023-05-18T20:59:06.155Z,100.00
2023-05-18T21:01:39.233Z,100.00
2023-05-18T21:04:07.361Z,100.00
2023-05-18T21:06:40.328Z,100.00
2023-05-18T21:09:08.144Z,100.00
2023-05-18T21:11:35.925Z,100.00
2023-05-18T21:14:03.496Z,100.00
2023-05-18T21:16:31.071Z,100.00
2023-05-18T21:18:58.490Z,100.00
2023-05-18T21:21:25.913Z,100.00
2023-05-18T21:23:53.309Z,100.00
2023-05-18T21:26:21.897Z,100.00
2023-05-18T21:28:49.195Z,100.00
2023-05-18T21:31:16.632Z,100.00
2023-05-18T21:33:47.837Z,100.00
2023-05-18T21:36:35.508Z,100.00
2023-05-18T21:39:06.422Z,100.00
2023-05-18T21:41:35.457Z,100.00
2023-05-18T21:44:03.330Z,100.00
2023-05-18T21:46:30.861Z,100.00
2023-05-18T21:48:58.665Z,100.00
2023-05-18T21:51:26.045Z,100.00
2023-05-18T21:53:53.345Z,100.00
2023-05-18T21:56:21.713Z,100.00
2023-05-18T21:58:48.923Z,100.00
2023-05-18T22:01:19.766Z,100.00
2023-05-18T22:03:48.052Z,100.00
2023-05-18T22:06:16.346Z,100.00
2023-05-18T22:08:44.557Z,100.00
2023-05-18T22:11:12.424Z,100.00
2023-05-18T22:13:40.108Z,100.00
2023-05-18T22:16:07.999Z,100.00
2023-05-18T22:18:35.543Z,100.00
2023-05-18T22:21:03.090Z,100.00
2023-05-18T22:23:30.390Z,100.00
2023-05-18T22:25:57.766Z,100.00
2023-05-18T22:28:25.103Z,100.00
2023-05-18T22:30:53.509Z,100.00
2023-05-18T22:33:23.659Z,100.00
2023-05-18T22:35:50.913Z,100.00
2023-05-18T22:38:20.812Z,100.00
2023-05-18T22:40:54.100Z,100.00
2023-05-18T22:43:22.132Z,100.00
2023-05-18T22:45:49.849Z,100.00
2023-05-18T22:48:17.206Z,100.00
2023-05-18T22:50:45.834Z,100.00
2023-05-18T22:53:14.645Z,100.00
2023-05-18T22:55:42.247Z,100.00
2023-05-18T22:58:09.540Z,100.00
2023-05-18T23:00:36.996Z,100.00
2023-05-18T23:03:06.456Z,100.00
2023-05-18T23:05:34.147Z,100.00
2023-05-18T23:08:02.908Z,100.00
2023-05-18T23:10:30.792Z,100.00
2023-05-18T23:12:58.554Z,100.00
2023-05-18T23:15:26.217Z,100.00
2023-05-18T23:17:56.368Z,100.00
2023-05-18T23:20:23.725Z,100.00
2023-05-18T23:22:51.875Z,100.00
2023-05-18T23:25:19.876Z,100.00
2023-05-18T23:27:47.230Z,100.00
2023-05-18T23:30:14.676Z,100.00
2023-05-18T23:32:42.354Z,100.00
2023-05-18T23:35:13.217Z,100.00
2023-05-18T23:37:42.263Z,100.00
2023-05-18T23:40:12.385Z,100.00
2023-05-18T23:42:40.174Z,100.00
2023-05-18T23:45:08.246Z,100.00
2023-05-18T23:47:37.016Z,100.00
2023-05-18T23:50:05.568Z,100.00
2023-05-18T23:52:34.547Z,100.00
2023-05-18T23:55:04.210Z,100.00
2023-05-18T23:57:31.959Z,100.00
